createdAt,value
2019-05-23T00:07:25.198Z,17.00
2019-05-23T00:18:25.079Z,24.30
2019-05-23T00:29:24.959Z,25.00
2019-05-23T00:40:24.852Z,25.40
2019-05-23T00:51:24.714Z,20.10
2019-05-23T01:02:24.589Z,26.20
2019-05-23T01:13:24.473Z,25.20
2019-05-23T01:24:24.345Z,21.50
2019-05-23T01:35:24.224Z,22.80
2019-05-23T01:46:24.139Z,24.70
2019-05-23T01:57:24.021Z,22.20
2019-05-23T02:08:23.895Z,18.40
2019-05-23T02:19:23.749Z,24.10
2019-05-23T02:30:34.281Z,19.30
2019-05-23T02:41:23.483Z,26.20
2019-05-23T02:52:23.390Z,27.00
2019-05-23T03:03:23.250Z,17.40
2019-05-23T03:14:23.123Z,21.10
2019-05-23T03:25:23.024Z,24.10
2019-05-23T03:36:22.893Z,18.70
2019-05-23T03:47:22.752Z,20.10
2019-05-23T03:58:22.628Z,22.20
2019-05-23T04:09:22.515Z,24.60
2019-05-23T04:20:22.385Z,24.20
2019-05-23T04:31:22.311Z,22.40
2019-05-23T04:42:22.145Z,41.00
2019-05-23T04:53:22.018Z,29.00
2019-05-23T05:04:21.939Z,20.80
2019-05-23T05:15:21.794Z,23.20
2019-05-23T05:26:21.666Z,28.70
2019-05-23T05:37:21.549Z,25.80
2019-05-23T05:48:21.405Z,30.10
2019-05-23T05:59:21.280Z,19.90
2019-05-23T06:10:21.294Z,23.40
2019-05-23T06:21:21.049Z,19.80
2019-05-23T06:32:20.945Z,19.50
2019-05-23T06:43:20.797Z,23.00
2019-05-23T06:54:20.692Z,18.00
2019-05-23T07:05:20.548Z,26.80
2019-05-23T07:16:20.446Z,17.10
2019-05-23T07:27:20.458Z,14.60
2019-05-23T07:38:20.251Z,18.90
2019-05-23T07:49:20.051Z,21.20
2019-05-23T08:00:19.946Z,16.00
2019-05-23T08:11:20.807Z,14.80
2019-05-23T08:22:19.686Z,18.40
2019-05-23T08:33:19.573Z,16.90
2019-05-23T08:44:19.456Z,17.90
2019-05-23T08:55:19.318Z,19.60
2019-05-23T09:06:19.224Z,11.50
2019-05-23T09:17:19.081Z,10.60
2019-05-23T09:28:18.950Z,10.50
2019-05-23T09:39:18.833Z,11.40
2019-05-23T09:50:18.715Z,11.10
2019-05-23T10:01:18.777Z,11.10
2019-05-23T10:12:22.178Z,11.10
2019-05-23T10:23:18.379Z,11.00
2019-05-23T10:34:18.231Z,19.10
2019-05-23T10:45:18.104Z,13.10
2019-05-23T10:56:20.541Z,9.50
2019-05-23T11:07:17.854Z,12.80
2019-05-23T11:18:17.739Z,11.90
2019-05-23T11:29:17.614Z,12.70
2019-05-23T11:40:17.485Z,10.80
2019-05-23T11:51:17.380Z,10.60
2019-05-23T12:02:18.241Z,12.60
2019-05-23T12:13:17.126Z,9.00
2019-05-23T12:24:17.012Z,9.80
2019-05-23T12:35:16.882Z,8.50
2019-05-23T12:46:16.820Z,6.70
2019-05-23T12:57:16.649Z,7.70
2019-05-23T13:08:16.516Z,8.10
2019-05-23T13:19:16.554Z,9.50
2019-05-23T13:30:16.273Z,6.80
2019-05-23T13:41:16.149Z,7.50
2019-05-23T13:52:16.027Z,9.60
2019-05-23T14:03:15.931Z,7.90
2019-05-23T14:14:15.820Z,7.00
2019-05-23T14:25:15.661Z,10.30
2019-05-23T14:36:15.541Z,6.60
2019-05-23T14:47:15.432Z,7.10
2019-05-23T14:58:15.288Z,7.90
2019-05-23T15:09:15.181Z,9.40
2019-05-23T15:20:15.061Z,5.10
2019-05-23T15:31:14.929Z,5.80
2019-05-23T15:42:14.800Z,7.00
2019-05-23T15:53:14.678Z,7.30
2019-05-23T16:04:14.558Z,8.40
2019-05-23T16:15:14.448Z,6.20
2019-05-23T16:26:14.328Z,8.60
2019-05-23T16:37:14.187Z,9.40
2019-05-23T16:48:14.059Z,6.30
2019-05-23T16:59:13.937Z,12.20
2019-05-23T17:10:13.812Z,7.10
2019-05-23T17:21:14.699Z,7.70
2019-05-23T17:32:13.577Z,9.50
2019-05-23T17:43:13.462Z,6.30
2019-05-23T17:54:13.319Z,7.90
2019-05-23T18:05:13.208Z,9.30
2019-05-23T18:16:13.077Z,8.70
2019-05-23T18:27:12.963Z,8.50
2019-05-23T18:38:12.855Z,7.90
2019-05-23T18:49:12.728Z,6.40
2019-05-23T19:00:12.605Z,8.20
2019-05-23T19:11:20.837Z,7.20
2019-05-23T19:22:12.352Z,7.30
2019-05-23T19:33:12.233Z,8.50
2019-05-23T19:44:12.119Z,7.30
2019-05-23T19:55:11.994Z,8.10
2019-05-23T20:06:11.886Z,8.90
2019-05-23T20:17:11.770Z,8.60
2019-05-23T20:28:11.651Z,12.30
2019-05-23T20:39:11.511Z,9.90
2019-05-23T20:50:11.385Z,7.80
2019-05-23T21:01:11.264Z,7.10
2019-05-23T21:12:28.456Z,8.20
2019-05-23T21:23:11.030Z,14.70
2019-05-23T21:34:10.904Z,8.70
2019-05-23T21:45:10.777Z,9.20
2019-05-23T21:56:10.716Z,10.40
2019-05-23T22:07:10.524Z,10.40
2019-05-23T22:18:10.391Z,8.70
2019-05-23T22:29:10.269Z,10.00
2019-05-23T22:40:10.150Z,9.40
2019-05-23T22:51:10.035Z,10.50
2019-05-23T23:02:09.914Z,10.10
2019-05-23T23:13:09.837Z,10.60
2019-05-23T23:24:09.654Z,12.40
2019-05-23T23:35:09.538Z,12.30
2019-05-23T23:46:09.410Z,11.50
2019-05-23T23:57:09.287Z,13.10
